Time;durP1;ratioP1;P1;durP2;ratioP2;P2;SDS_P1;SDS_P2;PMS_P1;PMS_P2;Temp;Humidity;BMP_temperature;BMP_pressure;BME280_temperature;BME280_humidity;BME280_pressure;Samples;Min_cycle;Max_cycle;Signal;HPM_P1;HPM_P2
2024/01/03 00:00:23;;;;;;;1.40;0.90;;;;;;;11.74;nan;98090.53;4995704;28;20231;-78
2024/01/03 00:02:49;;;;;;;1.60;0.90;;;;;;;11.73;nan;98088.06;4993661;28;20217;-76
2024/01/03 00:05:19;;;;;;;1.47;0.87;;;;;;;11.72;nan;98081.16;4994402;28;20730;-77
2024/01/03 00:07:47;;;;;;;1.00;0.90;;;;;;;11.73;nan;98081.00;4998227;28;20213;-78
2024/01/03 00:10:45;;;;;;;1.00;0.73;;;;;;;11.72;nan;98070.66;4995887;28;20229;-77
2024/01/03 00:13:29;;;;;;;4.60;0.80;;;;;;;11.72;nan;98063.56;4990998;28;20243;-77
2024/01/03 00:16:12;;;;;;;1.13;0.95;;;;;;;11.67;nan;98057.91;4995396;28;20680;-77
2024/01/03 00:18:43;;;;;;;1.05;0.80;;;;;;;11.67;nan;98065.81;4996116;28;20211;-78
2024/01/03 00:21:10;;;;;;;1.33;0.80;;;;;;;11.71;nan;98079.50;4993422;28;20219;-77
2024/01/03 00:23:48;;;;;;;1.40;0.80;;;;;;;11.69;nan;98079.66;4993556;28;20251;-77
2024/01/03 00:26:14;;;;;;;1.05;0.70;;;;;;;11.68;nan;98067.44;4996664;28;20843;-78
2024/01/03 00:28:41;;;;;;;0.70;0.60;;;;;;;11.70;nan;98062.88;4995944;28;20675;-79
2024/01/03 00:31:27;;;;;;;1.27;0.98;;;;;;;11.68;nan;98069.25;4997079;28;20311;-79
2024/01/03 00:33:52;;;;;;;1.35;0.80;;;;;;;11.69;nan;98068.28;4996854;28;20212;-78
2024/01/03 00:36:18;;;;;;;2.20;0.80;;;;;;;11.68;nan;98061.38;5003162;28;20490;-78
2024/01/03 00:38:44;;;;;;;0.82;0.80;;;;;;;11.72;nan;98070.66;5002069;28;20457;-79
2024/01/03 00:41:09;;;;;;;1.20;0.60;;;;;;;11.73;nan;98070.50;4998936;28;20203;-76
2024/01/03 00:43:36;;;;;;;1.30;1.10;;;;;;;11.71;nan;98061.06;4997035;28;20225;-77
2024/01/03 00:46:02;;;;;;;1.45;0.90;;;;;;;11.72;nan;98068.00;4994751;28;20201;-77
2024/01/03 00:48:30;;;;;;;0.80;0.80;;;;;;;11.71;nan;98061.06;4998653;28;20242;-77
2024/01/03 00:50:56;;;;;;;1.67;0.70;;;;;;;11.69;nan;98068.28;4997196;28;20482;-78
2024/01/03 00:53:22;;;;;;;0.77;0.63;;;;;;;11.65;nan;98067.75;4994179;28;20232;-77
2024/01/03 00:55:48;;;;;;;0.90;0.70;;;;;;;11.65;nan;98069.53;4995326;28;20775;-77
2024/01/03 00:58:13;;;;;;;0.83;0.83;;;;;;;11.67;nan;98068.44;4995615;28;20219;-78
2024/01/03 01:00:40;;;;;;;0.80;0.70;;;;;;;11.63;nan;98060.97;4998566;28;21057;-78
2024/01/03 01:03:08;;;;;;;0.95;0.85;;;;;;;11.55;nan;98069.56;4995529;28;20217;-78
2024/01/03 01:05:34;;;;;;;1.75;0.80;;;;;;;11.46;nan;98073.88;4996937;28;20283;-77
2024/01/03 01:08:02;;;;;;;0.80;0.70;;;;;;;11.40;nan;98078.88;4997428;28;20427;-77
2024/01/03 01:10:27;;;;;;;1.00;0.80;;;;;;;11.33;nan;98075.13;4993104;28;20207;-78
2024/01/03 01:12:53;;;;;;;0.90;0.70;;;;;;;11.24;nan;98076.81;4993256;28;20215;-77
2024/01/03 01:15:18;;;;;;;1.58;0.80;;;;;;;11.22;nan;98079.56;4996352;28;20825;-78
2024/01/03 01:17:44;;;;;;;1.20;0.90;;;;;;;11.22;nan;98090.06;4995952;28;20271;-77
2024/01/03 01:20:10;;;;;;;1.77;1.27;;;;;;;11.20;nan;98089.38;4997381;28;20223;-78
2024/01/03 01:22:35;;;;;;;1.70;0.80;;;;;;;11.20;nan;98081.50;4999277;28;20204;-78
2024/01/03 01:25:00;;;;;;;2.00;0.70;;;;;;;11.20;nan;98086.75;4998833;28;20472;-78
2024/01/03 01:27:26;;;;;;;1.00;0.90;;;;;;;11.21;nan;98106.00;4998932;28;20283;-77
2024/01/03 01:29:51;;;;;;;1.00;0.80;;;;;;;11.22;nan;98084.00;5000252;28;20750;-77
2024/01/03 01:32:16;;;;;;;0.60;0.60;;;;;;;11.21;nan;98108.63;4994674;28;20212;-77
2024/01/03 01:34:42;;;;;;;0.80;0.70;;;;;;;11.23;nan;98109.28;4993845;28;20346;-78
2024/01/03 01:37:08;;;;;;;0.90;0.80;;;;;;;11.23;nan;98112.78;4996773;28;20283;-77
2024/01/03 01:39:33;;;;;;;0.82;0.82;;;;;;;11.26;nan;98109.00;4997200;28;20206;-77
2024/01/03 01:41:59;;;;;;;0.97;0.80;;;;;;;11.27;nan;98119.41;4993699;28;20200;-77
2024/01/03 01:44:24;;;;;;;4.10;0.80;;;;;;;11.29;nan;98138.50;4995386;28;20216;-77
2024/01/03 01:46:50;;;;;;;0.67;0.60;;;;;;;11.36;nan;98141.38;4995646;28;20291;-79
2024/01/03 01:49:18;;;;;;;1.43;1.00;;;;;;;11.38;nan;98139.47;4997641;28;20577;-78
2024/01/03 01:51:45;;;;;;;3.72;1.08;;;;;;;11.41;nan;98131.28;4998130;28;21061;-78
2024/01/03 01:54:12;;;;;;;1.00;0.80;;;;;;;11.42;nan;98146.13;5011670;22;20232;-80
2024/01/03 01:56:39;;;;;;;1.13;0.93;;;;;;;11.43;nan;98125.91;5013401;28;20612;-81
2024/01/03 01:59:06;;;;;;;1.08;0.80;;;;;;;11.42;nan;98135.59;4998014;28;20267;-82
2024/01/03 02:01:34;;;;;;;2.45;1.20;;;;;;;11.43;nan;98128.53;5004705;28;20204;-81
2024/01/03 02:04:03;;;;;;;1.50;0.90;;;;;;;11.44;nan;98122.31;5000144;28;20199;-83
2024/01/03 02:06:29;;;;;;;1.40;0.90;;;;;;;11.42;nan;98117.19;5012549;28;20204;-81
2024/01/03 02:08:55;;;;;;;1.40;0.90;;;;;;;11.47;nan;98128.09;4999524;28;20520;-81
2024/01/03 02:11:20;;;;;;;1.10;0.90;;;;;;;11.42;nan;98125.09;5013256;28;20247;-81
2024/01/03 02:13:49;;;;;;;2.80;1.00;;;;;;;11.42;nan;98125.09;5000407;28;20238;-82
2024/01/03 02:16:16;;;;;;;1.40;1.05;;;;;;;11.41;nan;98123.41;5004276;28;20730;-81
2024/01/03 02:18:44;;;;;;;1.13;0.87;;;;;;;11.42;nan;98127.72;5001503;28;20210;-81
2024/01/03 02:21:15;;;;;;;1.77;0.80;;;;;;;11.39;nan;98122.72;5011749;28;20200;-81
2024/01/03 02:23:44;;;;;;;1.50;0.80;;;;;;;11.38;nan;98126.31;5008126;28;20275;-80
2024/01/03 02:26:10;;;;;;;1.20;0.90;;;;;;;11.37;nan;98127.31;5008915;28;20229;-82
2024/01/03 02:28:36;;;;;;;1.23;0.70;;;;;;;11.36;nan;98127.44;5009409;28;20209;-81
2024/01/03 02:31:01;;;;;;;1.35;0.93;;;;;;;11.37;nan;98122.03;5010723;28;20280;-82
2024/01/03 02:33:27;;;;;;;2.53;0.90;;;;;;;11.39;nan;98121.88;5009558;28;20234;-82
2024/01/03 02:35:52;;;;;;;2.80;1.67;;;;;;;11.38;nan;98131.56;5011400;28;20277;-81
2024/01/03 02:38:18;;;;;;;2.90;1.00;;;;;;;11.42;nan;98124.22;5009978;28;20924;-81
2024/01/03 02:40:44;;;;;;;1.43;1.00;;;;;;;11.41;nan;98114.69;5008018;28;20460;-81
2024/01/03 02:43:10;;;;;;;3.43;1.00;;;;;;;11.46;nan;98125.63;5012507;28;20222;-81
2024/01/03 02:45:36;;;;;;;1.10;0.90;;;;;;;11.48;nan;98124.53;5014625;28;20471;-81
2024/01/03 02:48:02;;;;;;;1.00;0.73;;;;;;;11.52;nan;98125.88;5010481;28;20249;-82
2024/01/03 02:50:27;;;;;;;1.98;0.85;;;;;;;11.58;nan;98129.75;5010105;28;20275;-82
2024/01/03 02:52:53;;;;;;;0.83;0.70;;;;;;;11.65;nan;98128.22;5011614;28;20255;-81
2024/01/03 02:55:18;;;;;;;1.00;0.80;;;;;;;11.69;nan;98120.88;5008689;28;20234;-80
2024/01/03 02:57:44;;;;;;;2.30;0.90;;;;;;;11.74;nan;98116.03;5013726;28;20211;-81
2024/01/03 03:00:10;;;;;;;0.70;0.67;;;;;;;11.79;nan;98115.63;5014055;28;20785;-81
2024/01/03 03:02:36;;;;;;;1.00;0.70;;;;;;;11.81;nan;98121.56;5017592;28;20202;-81
2024/01/03 03:05:01;;;;;;;0.63;0.63;;;;;;;11.82;nan;98112.69;5018780;28;20217;-81
2024/01/03 03:07:26;;;;;;;1.20;0.90;;;;;;;11.83;nan;98112.56;5017108;28;20431;-80
2024/01/03 03:09:52;;;;;;;1.57;0.70;;;;;;;11.85;nan;98123.75;5007138;28;20479;-80
2024/01/03 03:12:17;;;;;;;1.00;0.80;;;;;;;11.85;nan;98115.84;5022297;28;20206;-81
2024/01/03 03:14:43;;;;;;;0.70;0.60;;;;;;;11.87;nan;98119.22;5020098;28;20268;-80
2024/01/03 03:17:09;;;;;;;1.45;0.63;;;;;;;11.89;nan;98119.09;5018350;28;20815;-80
2024/01/03 03:19:34;;;;;;;1.77;0.77;;;;;;;11.89;nan;98121.72;5019098;28;20234;-81
2024/01/03 03:22:00;;;;;;;0.90;0.60;;;;;;;11.88;nan;98120.91;5017652;28;20331;-80
2024/01/03 03:24:26;;;;;;;0.80;0.80;;;;;;;11.86;nan;98109.69;4999347;28;20277;-81
2024/01/03 03:26:52;;;;;;;0.90;0.80;;;;;;;11.84;nan;98123.91;5009669;28;20287;-82
2024/01/03 03:29:18;;;;;;;0.70;0.60;;;;;;;11.80;nan;98122.53;5016050;28;20212;-82
2024/01/03 03:31:43;;;;;;;2.40;0.77;;;;;;;11.75;nan;98130.84;5011974;28;20202;-82
2024/01/03 03:34:08;;;;;;;0.77;0.67;;;;;;;11.72;nan;98115.38;5009068;28;20222;-81
2024/01/03 03:36:34;;;;;;;0.90;0.70;;;;;;;11.70;nan;98123.38;5012718;28;20228;-81
2024/01/03 03:38:59;;;;;;;1.13;0.80;;;;;;;11.70;nan;98112.03;5011466;28;20450;-81
2024/01/03 03:41:25;;;;;;;0.80;0.70;;;;;;;11.67;nan;98101.81;5006773;28;20209;-81
2024/01/03 03:43:50;;;;;;;1.00;0.70;;;;;;;11.64;nan;98116.06;5007750;28;20218;-81
2024/01/03 03:46:17;;;;;;;2.33;0.90;;;;;;;11.63;nan;98118.81;5013922;28;20205;-81
2024/01/03 03:48:42;;;;;;;2.15;0.90;;;;;;;11.61;nan;98129.50;5009805;28;20203;-81
2024/01/03 03:51:08;;;;;;;0.77;0.70;;;;;;;11.60;nan;98117.28;5010390;28;21003;-82
2024/01/03 03:53:33;;;;;;;0.90;0.90;;;;;;;11.57;nan;98127.28;5011368;28;20292;-81
2024/01/03 03:55:58;;;;;;;0.90;0.80;;;;;;;11.60;nan;98129.63;5010808;28;20323;-80
2024/01/03 03:58:24;;;;;;;2.10;0.80;;;;;;;11.59;nan;98131.44;5007301;28;20717;-82
2024/01/03 04:00:49;;;;;;;1.10;0.90;;;;;;;11.58;nan;98126.28;5009125;28;20266;-81
2024/01/03 04:03:15;;;;;;;0.80;0.80;;;;;;;11.54;nan;98127.56;5006309;28;20295;-80
2024/01/03 04:05:40;;;;;;;1.00;0.70;;;;;;;11.50;nan;98132.25;5011571;28;20197;-80
2024/01/03 04:08:06;;;;;;;1.33;1.00;;;;;;;11.47;nan;98122.84;5006395;28;20450;-80
2024/01/03 04:10:31;;;;;;;1.30;1.00;;;;;;;11.44;nan;98127.56;5015563;28;20253;-80
2024/01/03 04:12:57;;;;;;;1.23;0.80;;;;;;;11.43;nan;98141.69;5011794;28;20219;-81
2024/01/03 04:15:24;;;;;;;0.83;0.70;;;;;;;11.41;nan;98154.97;5007861;28;20208;-80
2024/01/03 04:17:52;;;;;;;1.55;0.70;;;;;;;11.42;nan;98145.25;5013107;28;20208;-81
2024/01/03 04:20:18;;;;;;;0.98;0.75;;;;;;;11.39;nan;98156.88;5005137;28;20329;-79
2024/01/03 04:22:45;;;;;;;3.30;0.80;;;;;;;11.43;nan;98165.34;5006330;28;20204;-81
2024/01/03 04:25:11;;;;;;;1.45;0.80;;;;;;;11.42;nan;98154.00;5007247;28;20685;-80
2024/01/03 04:27:36;;;;;;;1.15;1.08;;;;;;;11.42;nan;98161.03;5006037;28;20374;-81
2024/01/03 04:30:03;;;;;;;1.97;1.40;;;;;;;11.40;nan;98158.56;5009530;28;20212;-81
2024/01/03 04:32:29;;;;;;;2.47;1.08;;;;;;;11.38;nan;98160.50;5007329;28;20212;-84
2024/01/03 04:34:55;;;;;;;0.80;0.57;;;;;;;11.42;nan;98167.16;5001451;28;20242;-84
2024/01/03 04:37:20;;;;;;;1.30;0.90;;;;;;;11.43;nan;98155.66;5011454;28;20208;-85
2024/01/03 04:39:45;;;;;;;0.80;0.70;;;;;;;11.43;nan;98155.66;5013190;28;20200;-85
2024/01/03 04:42:11;;;;;;;1.37;1.00;;;;;;;11.41;nan;98162.03;5011878;28;20340;-85
2024/01/03 04:44:36;;;;;;;3.20;1.90;;;;;;;11.45;nan;98177.38;4998796;28;20208;-85
2024/01/03 04:47:02;;;;;;;1.20;0.90;;;;;;;11.47;nan;98174.59;5012284;28;20208;-85
2024/01/03 04:49:28;;;;;;;1.10;0.97;;;;;;;11.45;nan;98166.88;5012240;28;20224;-86
2024/01/03 04:51:54;;;;;;;2.95;1.48;;;;;;;11.48;nan;98158.69;5013819;28;20193;-85
2024/01/03 04:54:20;;;;;;;4.33;0.97;;;;;;;11.46;nan;98165.88;5012031;28;20328;-85
2024/01/03 04:56:46;;;;;;;1.83;1.30;;;;;;;11.50;nan;98159.41;5013313;28;20537;-86
2024/01/03 04:59:11;;;;;;;1.33;0.90;;;;;;;11.55;nan;98163.41;5010385;28;21072;-85
2024/01/03 05:01:38;;;;;;;1.33;1.20;;;;;;;11.57;nan;98154.41;5010871;28;20203;-85
2024/01/03 05:04:04;;;;;;;4.15;1.13;;;;;;;11.56;nan;98154.53;5014424;28;20204;-85
2024/01/03 05:06:29;;;;;;;2.47;1.00;;;;;;;11.53;nan;98142.50;5005564;28;20595;-85
2024/01/03 05:08:54;;;;;;;3.50;1.80;;;;;;;11.60;nan;98137.50;5013895;28;20415;-82
2024/01/03 05:11:20;;;;;;;1.80;1.10;;;;;;;11.52;nan;98149.56;5012246;28;20496;-85
2024/01/03 05:13:45;;;;;;;3.30;1.80;;;;;;;11.48;nan;98155.25;5014101;28;20225;-85
2024/01/03 05:16:11;;;;;;;2.10;1.20;;;;;;;11.46;nan;98168.53;5016061;28;20192;-85
2024/01/03 05:18:37;;;;;;;1.23;1.00;;;;;;;11.48;nan;98173.66;5018722;28;20199;-86
2024/01/03 05:21:03;;;;;;;1.40;1.30;;;;;;;11.44;nan;98172.25;5011873;28;20220;-85
2024/01/03 05:23:28;;;;;;;1.00;0.90;;;;;;;11.42;nan;98187.34;5013601;28;20237;-86
2024/01/03 05:25:54;;;;;;;3.00;1.60;;;;;;;11.49;nan;98191.09;5012427;28;20203;-87
2024/01/03 05:28:19;;;;;;;3.23;1.70;;;;;;;11.47;nan;98178.06;5015334;28;20298;-87
2024/01/03 05:30:45;;;;;;;2.73;1.17;;;;;;;11.49;nan;98172.66;5019583;28;20326;-86
2024/01/03 05:33:10;;;;;;;2.70;1.37;;;;;;;11.51;nan;98197.88;5008659;28;20209;-84
2024/01/03 05:35:35;;;;;;;0.83;0.80;;;;;;;11.53;nan;98179.34;5006888;28;20206;-85
2024/01/03 05:38:01;;;;;;;3.00;1.60;;;;;;;11.47;nan;98178.06;5004146;28;20554;-85
2024/01/03 05:40:26;;;;;;;4.60;1.20;;;;;;;11.42;nan;98189.97;5006442;28;20861;-85
2024/01/03 05:42:51;;;;;;;1.13;1.00;;;;;;;11.35;nan;98186.25;5007764;28;20276;-85
2024/01/03 05:45:17;;;;;;;2.10;1.03;;;;;;;11.29;nan;98185.81;5003826;28;20212;-85
2024/01/03 05:47:42;;;;;;;1.23;0.80;;;;;;;11.31;nan;98196.19;5008387;28;20210;-84
2024/01/03 05:50:11;;;;;;;2.63;1.00;;;;;;;11.27;nan;98190.38;5009588;28;20372;-85
2024/01/03 05:52:36;;;;;;;1.10;0.93;;;;;;;11.24;nan;98185.38;5006942;28;20207;-84
2024/01/03 05:55:02;;;;;;;1.83;1.20;;;;;;;11.20;nan;98191.88;5010635;28;20230;-85
2024/01/03 05:57:28;;;;;;;3.03;1.00;;;;;;;11.16;nan;98185.25;5009630;28;20337;-85
2024/01/03 05:59:54;;;;;;;4.77;1.20;;;;;;;11.14;nan;98191.59;5012366;28;20266;-85
2024/01/03 06:02:19;;;;;;;4.77;1.00;;;;;;;11.07;nan;98189.53;5007478;28;20198;-86
2024/01/03 06:04:46;;;;;;;2.40;1.30;;;;;;;11.03;nan;98193.38;5006264;28;20224;-82
2024/01/03 06:07:12;;;;;;;5.65;2.58;;;;;;;11.03;nan;98193.38;5006878;28;20212;-82
2024/01/03 06:09:37;;;;;;;1.90;1.35;;;;;;;10.97;nan;98186.03;5005825;28;20220;-81
2024/01/03 06:12:03;;;;;;;4.20;2.27;;;;;;;10.96;nan;98191.41;5002723;28;20253;-86
2024/01/03 06:14:29;;;;;;;3.93;1.60;;;;;;;10.95;nan;98201.09;5003994;28;20202;-87
2024/01/03 06:16:54;;;;;;;2.30;1.13;;;;;;;11.08;nan;98195.59;5006217;28;20199;-86
2024/01/03 06:19:20;;;;;;;2.10;1.50;;;;;;;11.09;nan;98189.38;5010116;28;20910;-86
2024/01/03 06:21:45;;;;;;;0.80;0.70;;;;;;;11.03;nan;98195.19;5007200;28;20539;-86
2024/01/03 06:24:11;;;;;;;1.33;0.80;;;;;;;11.00;nan;98187.56;5004693;28;20248;-86
2024/01/03 06:26:36;;;;;;;2.00;1.60;;;;;;;11.04;nan;98189.81;5001316;28;20211;-85
2024/01/03 06:29:02;;;;;;;1.73;1.10;;;;;;;11.03;nan;98197.81;4993548;28;20199;-86
2024/01/03 06:31:27;;;;;;;2.73;1.20;;;;;;;11.05;nan;98178.31;5003412;28;20303;-86
2024/01/03 06:33:53;;;;;;;5.10;1.40;;;;;;;11.10;nan;98172.66;4992001;28;20218;-86
2024/01/03 06:36:19;;;;;;;1.60;1.40;;;;;;;11.12;nan;98175.13;4991975;28;20971;-86
2024/01/03 06:38:44;;;;;;;4.68;1.33;;;;;;;11.10;nan;98177.91;4995493;28;20937;-86
2024/01/03 06:41:10;;;;;;;5.17;1.13;;;;;;;11.15;nan;98186.22;4995727;28;20215;-85
2024/01/03 06:43:35;;;;;;;2.40;1.10;;;;;;;11.10;nan;98193.69;4995250;28;20224;-87
2024/01/03 06:46:01;;;;;;;3.10;1.23;;;;;;;11.08;nan;98196.44;4980385;28;20203;-85
2024/01/03 06:48:26;;;;;;;1.57;1.27;;;;;;;11.07;nan;98197.41;4982889;28;20221;-86
2024/01/03 06:50:51;;;;;;;7.40;2.20;;;;;;;11.08;nan;98200.88;4995275;28;20227;-86
2024/01/03 06:53:17;;;;;;;2.20;1.30;;;;;;;11.06;nan;98208.03;4994731;28;20223;-82
2024/01/03 06:55:42;;;;;;;1.57;1.43;;;;;;;11.07;nan;98188.66;4991971;28;20228;-82
2024/01/03 06:58:08;;;;;;;1.37;1.00;;;;;;;11.10;nan;98177.06;4992864;28;20200;-82
2024/01/03 07:00:33;;;;;;;2.50;1.13;;;;;;;11.11;nan;98174.31;4996947;28;20253;-82
2024/01/03 07:03:00;;;;;;;2.87;2.33;;;;;;;11.10;nan;98170.03;4996167;28;20208;-84
2024/01/03 07:05:25;;;;;;;2.95;1.60;;;;;;;11.10;nan;98175.28;4994621;28;20475;-82
2024/01/03 07:07:51;;;;;;;1.30;0.90;;;;;;;11.05;nan;98174.84;4994308;28;20870;-83
2024/01/03 07:10:16;;;;;;;4.37;1.30;;;;;;;11.02;nan;98183.03;4996399;28;20589;-83
2024/01/03 07:12:42;;;;;;;1.53;1.00;;;;;;;10.97;nan;98180.78;4996084;28;20200;-82
2024/01/03 07:15:09;;;;;;;1.87;0.90;;;;;;;11.00;nan;98192.81;4983246;28;20298;-83
2024/01/03 07:17:34;;;;;;;4.18;1.52;;;;;;;10.95;nan;98174.00;4997340;28;20704;-83
2024/01/03 07:20:00;;;;;;;2.70;1.30;;;;;;;11.01;nan;98182.16;4993556;28;20207;-83
2024/01/03 07:22:25;;;;;;;1.10;1.00;;;;;;;11.03;nan;98197.81;4997551;28;20991;-83
2024/01/03 07:24:51;;;;;;;4.40;1.30;;;;;;;11.03;nan;98211.75;4996209;28;20297;-83
2024/01/03 07:27:16;;;;;;;4.20;1.40;;;;;;;10.99;nan;98212.16;4996140;28;20211;-83
2024/01/03 07:29:42;;;;;;;2.13;1.30;;;;;;;10.97;nan;98191.28;4995583;28;20311;-83
2024/01/03 07:32:08;;;;;;;2.20;1.23;;;;;;;11.01;nan;98200.56;4995618;28;20252;-83
2024/01/03 07:34:34;;;;;;;1.30;1.20;;;;;;;11.00;nan;98198.91;4993553;28;20254;-84
2024/01/03 07:37:00;;;;;;;1.43;1.23;;;;;;;11.11;nan;98200.59;4995694;28;20369;-84
2024/01/03 07:39:25;;;;;;;3.60;1.70;;;;;;;11.15;nan;98193.25;4992967;28;20546;-84
2024/01/03 07:41:51;;;;;;;1.67;1.10;;;;;;;11.06;nan;98174.69;4998298;28;20256;-83
2024/01/03 07:44:17;;;;;;;4.35;1.27;;;;;;;11.11;nan;98192.69;4977431;28;20986;-83
2024/01/03 07:46:42;;;;;;;1.17;0.70;;;;;;;11.13;nan;98198.66;4996720;28;20211;-84
2024/01/03 07:49:08;;;;;;;1.43;0.90;;;;;;;11.15;nan;98212.50;4992724;28;20600;-82
2024/01/03 07:51:38;;;;;;;3.63;1.40;;;;;;;11.19;nan;98206.00;4994651;28;20711;-84
2024/01/03 07:54:07;;;;;;;1.95;1.30;;;;;;;11.21;nan;98195.34;4993168;28;20232;-80
2024/01/03 07:56:32;;;;;;;2.47;1.23;;;;;;;11.20;nan;98197.13;5067137;22;20318;-82
2024/01/03 07:58:58;;;;;;;1.70;0.90;;;;;;;11.21;nan;98201.44;4945527;28;20216;-81
2024/01/03 08:01:23;;;;;;;1.70;1.43;;;;;;;11.25;nan;98192.28;4961989;28;20193;-80
2024/01/03 08:03:48;;;;;;;3.40;1.27;;;;;;;11.23;nan;98188.16;4967224;28;20244;-81
2024/01/03 08:06:20;;;;;;;1.73;1.00;;;;;;;11.28;nan;98207.78;4967654;28;20279;-79
2024/01/03 08:08:46;;;;;;;2.75;1.55;;;;;;;11.26;nan;98193.13;4962487;28;20238;-80
2024/01/03 08:11:12;;;;;;;9.30;1.67;;;;;;;11.30;nan;98199.78;4965948;28;20593;-79
2024/01/03 08:13:37;;;;;;;1.27;0.90;;;;;;;11.28;nan;98192.03;4970196;28;20475;-81
2024/01/03 08:16:04;;;;;;;2.20;1.00;;;;;;;11.29;nan;98201.59;4967760;28;20370;-81
2024/01/03 08:18:29;;;;;;;2.17;1.10;;;;;;;11.30;nan;98190.09;4969760;28;20227;-79
2024/01/03 08:20:55;;;;;;;1.97;0.97;;;;;;;11.33;nan;98188.16;4968651;28;20189;-80
2024/01/03 08:23:20;;;;;;;4.77;1.03;;;;;;;11.32;nan;98194.41;4967115;28;20746;-80
2024/01/03 08:25:45;;;;;;;8.57;1.87;;;;;;;11.32;nan;98194.41;4966258;28;20205;-79
2024/01/03 08:28:11;;;;;;;1.53;1.10;;;;;;;11.31;nan;98185.66;4964414;28;21309;-79
2024/01/03 08:30:36;;;;;;;1.43;1.23;;;;;;;11.30;nan;98187.47;4965681;28;20420;-81
2024/01/03 08:33:02;;;;;;;1.63;1.37;;;;;;;11.32;nan;98194.41;4965065;28;20195;-81
2024/01/03 08:35:27;;;;;;;2.37;0.97;;;;;;;11.35;nan;98188.88;4950520;28;20201;-80
2024/01/03 08:37:53;;;;;;;1.80;1.00;;;;;;;11.32;nan;98189.16;4965206;28;20500;-79
2024/01/03 08:40:18;;;;;;;1.10;1.00;;;;;;;11.36;nan;98198.41;4965048;28;20426;-81
2024/01/03 08:42:43;;;;;;;6.10;1.00;;;;;;;11.42;nan;98198.69;4963412;28;20193;-81
2024/01/03 08:45:09;;;;;;;1.10;0.90;;;;;;;11.50;nan;98200.63;4965372;28;20213;-79
2024/01/03 08:47:34;;;;;;;1.43;1.00;;;;;;;11.55;nan;98195.78;4966425;28;20799;-80
2024/01/03 08:49:59;;;;;;;1.30;0.90;;;;;;;11.63;nan;98195.91;4966190;28;20253;-81
2024/01/03 08:52:25;;;;;;;3.90;1.30;;;;;;;11.68;nan;98193.69;4967804;28;20209;-79
2024/01/03 08:54:50;;;;;;;1.70;0.77;;;;;;;11.76;nan;98192.19;4967121;28;20239;-79
2024/01/03 08:57:16;;;;;;;1.23;0.80;;;;;;;11.81;nan;98201.31;4964916;28;20229;-79
2024/01/03 08:59:41;;;;;;;1.30;0.80;;;;;;;11.84;nan;98197.56;4965462;28;20206;-81
2024/01/03 09:02:06;;;;;;;4.17;1.20;;;;;;;11.87;nan;98200.78;4966511;28;20233;-80
2024/01/03 09:04:32;;;;;;;3.67;1.30;;;;;;;11.87;nan;98208.66;4966963;28;20213;-79
2024/01/03 09:06:57;;;;;;;4.33;1.23;;;;;;;11.82;nan;98217.91;4964399;28;20212;-81
2024/01/03 09:09:23;;;;;;;3.88;1.38;;;;;;;11.90;nan;98197.88;4964476;28;20450;-80
2024/01/03 09:11:49;;;;;;;5.57;1.63;;;;;;;11.90;nan;98218.09;4963872;28;20271;-79
2024/01/03 09:14:16;;;;;;;1.23;1.10;;;;;;;11.85;nan;98205.31;4966678;28;20307;-81
2024/01/03 09:16:41;;;;;;;5.45;0.95;;;;;;;12.00;nan;98207.56;4968236;28;20346;-82
2024/01/03 09:19:07;;;;;;;1.20;1.00;;;;;;;11.98;nan;98199.78;4973718;28;20217;-80
2024/01/03 09:21:32;;;;;;;1.37;1.00;;;;;;;12.05;nan;98211.44;4971222;28;20210;-80
2024/01/03 09:23:59;;;;;;;1.13;0.80;;;;;;;12.05;nan;98229.03;4974034;28;20817;-81
2024/01/03 09:26:24;;;;;;;2.80;1.45;;;;;;;12.07;nan;98224.44;4971801;28;20210;-79
2024/01/03 09:28:51;;;;;;;4.60;1.30;;;;;;;12.13;nan;98213.34;4973125;28;20259;-79
2024/01/03 09:31:18;;;;;;;1.70;1.00;;;;;;;12.07;nan;98211.28;4967641;28;20304;-80
2024/01/03 09:33:43;;;;;;;1.75;0.70;;;;;;;12.09;nan;98231.22;4966691;28;20233;-80
2024/01/03 09:36:18;;;;;;;1.50;0.80;;;;;;;12.09;nan;98233.84;4964054;28;20360;-79
2024/01/03 09:38:45;;;;;;;1.40;0.90;;;;;;;12.10;nan;98250.50;4964722;28;20530;-80
2024/01/03 09:41:12;;;;;;;7.70;1.05;;;;;;;12.21;nan;98236.34;4964673;28;20205;-81
2024/01/03 09:43:41;;;;;;;1.45;0.75;;;;;;;12.41;nan;98235.31;4964582;28;20202;-81
2024/01/03 09:46:07;;;;;;;1.33;0.80;;;;;;;12.42;nan;98244.03;4964086;28;20287;-79
2024/01/03 09:48:33;;;;;;;2.97;1.00;;;;;;;12.39;nan;98247.78;4964178;28;21237;-79
2024/01/03 09:51:01;;;;;;;3.40;0.90;;;;;;;12.47;nan;98263.69;4936282;28;20231;-81
2024/01/03 09:53:29;;;;;;;5.10;1.17;;;;;;;12.57;nan;98253.97;4966203;28;20213;-79
2024/01/03 09:55:54;;;;;;;6.00;1.08;;;;;;;12.71;nan;98244.78;4966650;28;20344;-81
2024/01/03 09:58:24;;;;;;;3.80;0.90;;;;;;;12.91;nan;98266.63;4965621;28;20930;-81
2024/01/03 10:00:49;;;;;;;1.70;0.75;;;;;;;13.62;nan;98254.59;4971525;28;20220;-83
2024/01/03 10:03:16;;;;;;;2.50;0.90;;;;;;;14.41;nan;98261.66;4968163;28;20506;-80
2024/01/03 10:05:41;;;;;;;2.00;0.82;;;;;;;15.12;nan;98249.16;4968385;28;20202;-82
2024/01/03 10:08:14;;;;;;;3.03;1.50;;;;;;;15.50;nan;98258.41;4966101;28;20212;-83
2024/01/03 10:10:39;;;;;;;3.17;0.80;;;;;;;15.89;nan;98252.53;4965237;28;20250;-82
2024/01/03 10:13:16;;;;;;;0.70;0.70;;;;;;;16.16;nan;98232.81;4962713;28;20344;-80
2024/01/03 10:15:45;;;;;;;2.38;1.00;;;;;;;16.15;nan;98253.19;4962789;28;20281;-81
2024/01/03 10:18:14;;;;;;;4.45;1.10;;;;;;;16.03;nan;98257.16;4965356;28;20196;-81
2024/01/03 10:20:40;;;;;;;4.05;1.35;;;;;;;15.77;nan;98253.81;4962462;28;20196;-81
2024/01/03 10:23:13;;;;;;;1.70;0.90;;;;;;;15.27;nan;98255.53;4966485;28;20207;-80
2024/01/03 10:25:40;;;;;;;1.42;1.00;;;;;;;14.71;nan;98255.09;4966603;28;20483;-81
2024/01/03 10:28:08;;;;;;;1.50;0.88;;;;;;;14.10;nan;98259.47;4966873;28;20227;-79
2024/01/03 10:30:33;;;;;;;0.98;0.88;;;;;;;13.66;nan;98269.13;4962896;28;20200;-80
2024/01/03 10:32:59;;;;;;;3.00;1.23;;;;;;;13.31;nan;98269.91;4964471;28;20286;-83
2024/01/03 10:35:33;;;;;;;6.53;1.63;;;;;;;13.19;nan;98287.72;4964091;28;20183;-79
2024/01/03 10:37:59;;;;;;;1.27;0.93;;;;;;;13.03;nan;98262.81;4961861;28;20203;-81
2024/01/03 10:40:29;;;;;;;3.05;0.93;;;;;;;13.00;nan;98296.53;4962994;28;20197;-80
2024/01/03 10:42:55;;;;;;;1.67;1.10;;;;;;;12.93;nan;98269.91;4967576;28;20223;-80
2024/01/03 10:45:21;;;;;;;3.23;1.53;;;;;;;12.91;nan;98278.94;4967387;28;20890;-82
2024/01/03 10:47:48;;;;;;;1.33;0.70;;;;;;;12.86;nan;98281.22;4965841;28;20474;-80
2024/01/03 10:50:14;;;;;;;2.65;1.23;;;;;;;12.74;nan;98270.81;4964457;28;20464;-80
2024/01/03 10:52:42;;;;;;;1.07;0.97;;;;;;;12.72;nan;98287.75;4974122;28;20267;-82
2024/01/03 10:55:10;;;;;;;1.10;0.80;;;;;;;12.65;nan;98276.97;4974729;28;20282;-82
2024/01/03 10:57:43;;;;;;;0.60;0.60;;;;;;;12.59;nan;98293.34;4978130;28;20247;-82
2024/01/03 11:00:19;;;;;;;1.45;0.70;;;;;;;12.65;nan;98278.78;4982512;28;20200;-81
2024/01/03 11:03:05;;;;;;;2.08;1.00;;;;;;;12.65;nan;98278.78;4965911;28;20542;-78
2024/01/03 11:05:43;;;;;;;1.60;1.13;;;;;;;12.62;nan;98267.56;4971320;28;20179;-79
2024/01/03 11:08:12;;;;;;;2.38;1.02;;;;;;;12.61;nan;98276.44;4974891;28;20204;-81
2024/01/03 11:10:52;;;;;;;2.15;1.30;;;;;;;12.59;nan;98288.09;4976900;28;20221;-82
2024/01/03 11:13:31;;;;;;;5.30;1.27;;;;;;;12.54;nan;98282.41;4976099;28;20203;-83
2024/01/03 11:15:58;;;;;;;7.70;2.17;;;;;;;12.51;nan;98272.16;4977693;28;20198;-82
2024/01/03 11:18:42;;;;;;;3.92;2.28;;;;;;;12.49;nan;98259.13;4971295;28;20208;-81
2024/01/03 11:21:25;;;;;;;2.22;0.80;;;;;;;12.44;nan;98264.00;4967355;28;20664;-79
2024/01/03 11:23:50;;;;;;;4.68;0.98;;;;;;;12.43;nan;98248.34;4967655;28;20211;-80
2024/01/03 11:26:16;;;;;;;0.77;0.77;;;;;;;12.42;nan;98268.56;4976940;28;20223;-81
2024/01/03 11:28:48;;;;;;;1.97;1.77;;;;;;;12.45;nan;98281.47;4974311;28;20211;-81
2024/01/03 11:31:34;;;;;;;4.60;1.17;;;;;;;12.49;nan;98282.00;4970573;28;20208;-81
2024/01/03 11:34:00;;;;;;;2.35;0.85;;;;;;;12.55;nan;98277.00;4966656;28;20249;-81
2024/01/03 11:36:44;;;;;;;1.00;0.90;;;;;;;12.63;nan;98263.94;4971722;28;20203;-79
2024/01/03 11:39:36;;;;;;;1.08;0.98;;;;;;;12.72;nan;98254.34;4973765;28;20466;-79
2024/01/03 11:42:02;;;;;;;3.13;1.00;;;;;;;12.75;nan;98232.16;4972495;28;20439;-81
2024/01/03 11:44:28;;;;;;;2.58;1.58;;;;;;;12.83;nan;98246.25;4973876;28;20219;-80
2024/01/03 11:47:03;;;;;;;2.33;0.90;;;;;;;12.92;nan;98233.19;4982241;28;20254;-80
2024/01/03 11:49:29;;;;;;;2.88;1.55;;;;;;;13.00;nan;98230.66;4983381;28;20603;-82